sensor_id;sensor_type;location;lat;lon;timestamp;P1;P2;P0
73565;PMS5003;61846;52.970;-3.168;2023-05-10T00:02:08;6;5;
73565;PMS5003;61846;52.970;-3.168;2023-05-10T00:04:33;6;4;
73565;PMS5003;61846;52.970;-3.168;2023-05-10T00:06:59;3;3;
73565;PMS5003;61846;52.970;-3.168;2023-05-10T00:09:24;7;4;
73565;PMS5003;61846;52.970;-3.168;2023-05-10T00:11:50;6;5;
73565;PMS5003;61846;52.970;-3.168;2023-05-10T00:14:15;6;4;
73565;PMS5003;61846;52.970;-3.168;2023-05-10T00:16:41;5;5;
73565;PMS5003;61846;52.970;-3.168;2023-05-10T00:19:06;10;4;
73565;PMS5003;61846;52.970;-3.168;2023-05-10T00:21:32;7;4;
73565;PMS5003;61846;52.970;-3.168;2023-05-10T00:23:58;6;6;
73565;PMS5003;61846;52.970;-3.168;2023-05-10T00:26:23;7;5;
73565;PMS5003;61846;52.970;-3.168;2023-05-10T00:28:49;3;3;
73565;PMS5003;61846;52.970;-3.168;2023-05-10T00:31:14;6;3;
73565;PMS5003;61846;52.970;-3.168;2023-05-10T00:33:39;4;3;
73565;PMS5003;61846;52.970;-3.168;2023-05-10T00:36:05;10;4;
73565;PMS5003;61846;52.970;-3.168;2023-05-10T00:38:30;5;3;
73565;PMS5003;61846;52.970;-3.168;2023-05-10T00:40:56;5;4;
73565;PMS5003;61846;52.970;-3.168;2023-05-10T00:43:21;2;2;
73565;PMS5003;61846;52.970;-3.168;2023-05-10T00:45:46;2;2;
73565;PMS5003;61846;52.970;-3.168;2023-05-10T00:48:12;5;3;
73565;PMS5003;61846;52.970;-3.168;2023-05-10T00:50:37;7;5;
73565;PMS5003;61846;52.970;-3.168;2023-05-10T00:53:03;9;4;
73565;PMS5003;61846;52.970;-3.168;2023-05-10T00:55:28;4;3;
73565;PMS5003;61846;52.970;-3.168;2023-05-10T00:57:54;3;3;
73565;PMS5003;61846;52.970;-3.168;2023-05-10T01:00:19;13;4;
73565;PMS5003;61846;52.970;-3.168;2023-05-10T01:02:44;4;4;
73565;PMS5003;61846;52.970;-3.168;2023-05-10T01:05:10;6;4;
73565;PMS5003;61846;52.970;-3.168;2023-05-10T01:07:35;6;4;
73565;PMS5003;61846;52.970;-3.168;2023-05-10T01:10:01;6;4;
73565;PMS5003;61846;52.970;-3.168;2023-05-10T01:12:27;5;3;
73565;PMS5003;61846;52.970;-3.168;2023-05-10T01:14:52;7;4;
73565;PMS5003;61846;52.970;-3.168;2023-05-10T01:17:18;5;4;
73565;PMS5003;61846;52.970;-3.168;2023-05-10T01:19:43;5;3;
73565;PMS5003;61846;52.970;-3.168;2023-05-10T01:22:12;4;2;
73565;PMS5003;61846;52.970;-3.168;2023-05-10T01:24:38;9;5;
73565;PMS5003;61846;52.970;-3.168;2023-05-10T01:29:31;5;4;
73565;PMS5003;61846;52.970;-3.168;2023-05-10T01:34:17;5;5;
73565;PMS5003;61846;52.970;-3.168;2023-05-10T01:36:43;6;6;
73565;PMS5003;61846;52.970;-3.168;2023-05-10T01:39:09;7;6;
73565;PMS5003;61846;52.970;-3.168;2023-05-10T01:41:39;10;5;
73565;PMS5003;61846;52.970;-3.168;2023-05-10T01:44:01;6;4;
73565;PMS5003;61846;52.970;-3.168;2023-05-10T01:46:27;7;5;
73565;PMS5003;61846;52.970;-3.168;2023-05-10T01:48:51;6;6;
73565;PMS5003;61846;52.970;-3.168;2023-05-10T01:51:16;8;4;
73565;PMS5003;61846;52.970;-3.168;2023-05-10T01:53:41;4;4;
73565;PMS5003;61846;52.970;-3.168;2023-05-10T01:56:06;5;3;
73565;PMS5003;61846;52.970;-3.168;2023-05-10T01:58:32;10;4;
73565;PMS5003;61846;52.970;-3.168;2023-05-10T02:00:58;8;5;
73565;PMS5003;61846;52.970;-3.168;2023-05-10T02:03:24;6;4;
73565;PMS5003;61846;52.970;-3.168;2023-05-10T02:05:48;5;5;
73565;PMS5003;61846;52.970;-3.168;2023-05-10T02:08:14;9;5;
73565;PMS5003;61846;52.970;-3.168;2023-05-10T02:10:40;7;6;
73565;PMS5003;61846;52.970;-3.168;2023-05-10T02:13:05;4;3;
73565;PMS5003;61846;52.970;-3.168;2023-05-10T02:15:30;10;7;
73565;PMS5003;61846;52.970;-3.168;2023-05-10T02:17:56;6;6;
73565;PMS5003;61846;52.970;-3.168;2023-05-10T02:20:21;6;4;
73565;PMS5003;61846;52.970;-3.168;2023-05-10T02:22:47;3;3;
73565;PMS5003;61846;52.970;-3.168;2023-05-10T02:25:12;10;5;
73565;PMS5003;61846;52.970;-3.168;2023-05-10T02:27:38;9;4;
73565;PMS5003;61846;52.970;-3.168;2023-05-10T02:30:04;9;5;
73565;PMS5003;61846;52.970;-3.168;2023-05-10T02:32:29;4;3;
73565;PMS5003;61846;52.970;-3.168;2023-05-10T02:34:54;8;4;
73565;PMS5003;61846;52.970;-3.168;2023-05-10T02:37:20;6;5;
73565;PMS5003;61846;52.970;-3.168;2023-05-10T02:39:45;5;3;
73565;PMS5003;61846;52.970;-3.168;2023-05-10T02:42:11;5;5;
73565;PMS5003;61846;52.970;-3.168;2023-05-10T02:44:36;4;3;
73565;PMS5003;61846;52.970;-3.168;2023-05-10T02:47:02;4;2;
73565;PMS5003;61846;52.970;-3.168;2023-05-10T02:49:27;4;4;
73565;PMS5003;61846;52.970;-3.168;2023-05-10T02:51:54;4;3;
73565;PMS5003;61846;52.970;-3.168;2023-05-10T02:54:19;2;2;
73565;PMS5003;61846;52.970;-3.168;2023-05-10T02:56:49;7;4;
73565;PMS5003;61846;52.970;-3.168;2023-05-10T02:59:09;6;4;
73565;PMS5003;61846;52.970;-3.168;2023-05-10T03:01:35;5;4;
73565;PMS5003;61846;52.970;-3.168;2023-05-10T03:04:00;6;4;
73565;PMS5003;61846;52.970;-3.168;2023-05-10T03:06:26;4;4;
73565;PMS5003;61846;52.970;-3.168;2023-05-10T03:08:51;5;3;
73565;PMS5003;61846;52.970;-3.168;2023-05-10T03:11:21;6;5;
73565;PMS5003;61846;52.970;-3.168;2023-05-10T03:13:44;4;4;
73565;PMS5003;61846;52.970;-3.168;2023-05-10T03:16:08;4;4;
73565;PMS5003;61846;52.970;-3.168;2023-05-10T03:18:34;6;5;
73565;PMS5003;61846;52.970;-3.168;2023-05-10T03:21:00;2;2;
73565;PMS5003;61846;52.970;-3.168;2023-05-10T03:23:26;6;3;
73565;PMS5003;61846;52.970;-3.168;2023-05-10T03:25:50;6;4;
73565;PMS5003;61846;52.970;-3.168;2023-05-10T03:28:16;5;5;
73565;PMS5003;61846;52.970;-3.168;2023-05-10T03:30:41;5;4;
73565;PMS5003;61846;52.970;-3.168;2023-05-10T03:33:07;4;3;
73565;PMS5003;61846;52.970;-3.168;2023-05-10T03:35:32;5;5;
73565;PMS5003;61846;52.970;-3.168;2023-05-10T03:37:57;4;4;
73565;PMS5003;61846;52.970;-3.168;2023-05-10T03:40:23;5;4;
73565;PMS5003;61846;52.970;-3.168;2023-05-10T03:42:49;7;6;
73565;PMS5003;61846;52.970;-3.168;2023-05-10T03:45:14;6;2;
73565;PMS5003;61846;52.970;-3.168;2023-05-10T03:47:40;8;3;
73565;PMS5003;61846;52.970;-3.168;2023-05-10T03:50:06;2;2;
73565;PMS5003;61846;52.970;-3.168;2023-05-10T03:52:31;5;5;
73565;PMS5003;61846;52.970;-3.168;2023-05-10T03:54:56;8;5;
73565;PMS5003;61846;52.970;-3.168;2023-05-10T03:57:22;3;2;
73565;PMS5003;61846;52.970;-3.168;2023-05-10T03:59:47;6;4;
73565;PMS5003;61846;52.970;-3.168;2023-05-10T04:02:13;3;3;
73565;PMS5003;61846;52.970;-3.168;2023-05-10T04:04:39;5;5;
73565;PMS5003;61846;52.970;-3.168;2023-05-10T04:07:04;5;3;
73565;PMS5003;61846;52.970;-3.168;2023-05-10T04:09:30;6;5;
73565;PMS5003;61846;52.970;-3.168;2023-05-10T04:11:55;2;2;
73565;PMS5003;61846;52.970;-3.168;2023-05-10T04:14:21;6;4;
73565;PMS5003;61846;52.970;-3.168;2023-05-10T04:16:46;5;4;
73565;PMS5003;61846;52.970;-3.168;2023-05-10T04:19:12;5;5;
73565;PMS5003;61846;52.970;-3.168;2023-05-10T04:21:37;2;2;
73565;PMS5003;61846;52.970;-3.168;2023-05-10T04:24:03;7;5;
73565;PMS5003;61846;52.970;-3.168;2023-05-10T04:26:28;4;4;
73565;PMS5003;61846;52.970;-3.168;2023-05-10T04:28:54;3;3;
73565;PMS5003;61846;52.970;-3.168;2023-05-10T04:31:19;3;3;
73565;PMS5003;61846;52.970;-3.168;2023-05-10T04:33:45;5;4;
73565;PMS5003;61846;52.970;-3.168;2023-05-10T04:36:10;5;5;
73565;PMS5003;61846;52.970;-3.168;2023-05-10T04:38:35;4;3;
73565;PMS5003;61846;52.970;-3.168;2023-05-10T04:41:04;6;4;
73565;PMS5003;61846;52.970;-3.168;2023-05-10T04:43:27;7;6;
73565;PMS5003;61846;52.970;-3.168;2023-05-10T04:45:52;6;4;
73565;PMS5003;61846;52.970;-3.168;2023-05-10T04:48:17;6;3;
73565;PMS5003;61846;52.970;-3.168;2023-05-10T04:50:43;4;4;
73565;PMS5003;61846;52.970;-3.168;2023-05-10T04:53:08;4;3;
73565;PMS5003;61846;52.970;-3.168;2023-05-10T04:55:34;4;3;
73565;PMS5003;61846;52.970;-3.168;2023-05-10T04:58:00;6;5;
73565;PMS5003;61846;52.970;-3.168;2023-05-10T05:00:25;4;4;
73565;PMS5003;61846;52.970;-3.168;2023-05-10T05:02:51;6;6;
73565;PMS5003;61846;52.970;-3.168;2023-05-10T05:05:16;4;3;
73565;PMS5003;61846;52.970;-3.168;2023-05-10T05:07:42;3;3;
73565;PMS5003;61846;52.970;-3.168;2023-05-10T05:10:08;6;3;
73565;PMS5003;61846;52.970;-3.168;2023-05-10T05:12:33;7;3;
73565;PMS5003;61846;52.970;-3.168;2023-05-10T05:14:58;3;3;
73565;PMS5003;61846;52.970;-3.168;2023-05-10T05:17:24;8;5;
73565;PMS5003;61846;52.970;-3.168;2023-05-10T05:19:49;5;5;
73565;PMS5003;61846;52.970;-3.168;2023-05-10T05:22:15;3;3;
73565;PMS5003;61846;52.970;-3.168;2023-05-10T05:24:40;8;3;
73565;PMS5003;61846;52.970;-3.168;2023-05-10T05:27:06;6;5;
73565;PMS5003;61846;52.970;-3.168;2023-05-10T05:29:31;3;2;
73565;PMS5003;61846;52.970;-3.168;2023-05-10T05:31:57;4;4;
73565;PMS5003;61846;52.970;-3.168;2023-05-10T05:34:22;4;3;
73565;PMS5003;61846;52.970;-3.168;2023-05-10T05:36:48;6;4;
73565;PMS5003;61846;52.970;-3.168;2023-05-10T05:39:13;4;4;
73565;PMS5003;61846;52.970;-3.168;2023-05-10T05:41:38;3;2;
73565;PMS5003;61846;52.970;-3.168;2023-05-10T05:44:04;4;3;
73565;PMS5003;61846;52.970;-3.168;2023-05-10T05:46:29;5;3;
73565;PMS5003;61846;52.970;-3.168;2023-05-10T05:48:55;3;3;
73565;PMS5003;61846;52.970;-3.168;2023-05-10T05:51:20;9;4;
73565;PMS5003;61846;52.970;-3.168;2023-05-10T05:53:46;7;4;
73565;PMS5003;61846;52.970;-3.168;2023-05-10T05:56:12;7;4;
73565;PMS5003;61846;52.970;-3.168;2023-05-10T05:58:37;6;5;
73565;PMS5003;61846;52.970;-3.168;2023-05-10T06:01:02;3;3;
73565;PMS5003;61846;52.970;-3.168;2023-05-10T06:03:27;6;4;
73565;PMS5003;61846;52.970;-3.168;2023-05-10T06:05:52;4;4;
73565;PMS5003;61846;52.970;-3.168;2023-05-10T06:08:18;5;4;
73565;PMS5003;61846;52.970;-3.168;2023-05-10T06:10:44;7;4;
73565;PMS5003;61846;52.970;-3.168;2023-05-10T06:13:09;8;5;
73565;PMS5003;61846;52.970;-3.168;2023-05-10T06:15:34;4;4;
73565;PMS5003;61846;52.970;-3.168;2023-05-10T06:18:00;4;4;
73565;PMS5003;61846;52.970;-3.168;2023-05-10T06:20:25;4;4;
73565;PMS5003;61846;52.970;-3.168;2023-05-10T06:22:51;2;2;
73565;PMS5003;61846;52.970;-3.168;2023-05-10T06:25:16;5;3;
73565;PMS5003;61846;52.970;-3.168;2023-05-10T06:27:42;6;5;
73565;PMS5003;61846;52.970;-3.168;2023-05-10T06:30:08;4;4;
73565;PMS5003;61846;52.970;-3.168;2023-05-10T06:32:33;4;4;
73565;PMS5003;61846;52.970;-3.168;2023-05-10T06:34:58;3;1;
73565;PMS5003;61846;52.970;-3.168;2023-05-10T06:37:24;4;2;
73565;PMS5003;61846;52.970;-3.168;2023-05-10T06:39:49;6;4;
73565;PMS5003;61846;52.970;-3.168;2023-05-10T06:42:14;12;4;
73565;PMS5003;61846;52.970;-3.168;2023-05-10T06:44:40;3;3;
73565;PMS5003;61846;52.970;-3.168;2023-05-10T06:47:05;6;3;
73565;PMS5003;61846;52.970;-3.168;2023-05-10T06:49:31;3;3;
73565;PMS5003;61846;52.970;-3.168;2023-05-10T06:51:57;19;14;
73565;PMS5003;61846;52.970;-3.168;2023-05-10T06:54:22;9;6;
73565;PMS5003;61846;52.970;-3.168;2023-05-10T06:56:47;3;1;
73565;PMS5003;61846;52.970;-3.168;2023-05-10T06:59:13;3;3;
73565;PMS5003;61846;52.970;-3.168;2023-05-10T07:01:38;5;2;
73565;PMS5003;61846;52.970;-3.168;2023-05-10T07:04:04;1;1;
73565;PMS5003;61846;52.970;-3.168;2023-05-10T07:06:29;7;3;
73565;PMS5003;61846;52.970;-3.168;2023-05-10T07:08:55;2;2;
73565;PMS5003;61846;52.970;-3.168;2023-05-10T07:11:20;3;3;
73565;PMS5003;61846;52.970;-3.168;2023-05-10T07:13:46;1;1;
73565;PMS5003;61846;52.970;-3.168;2023-05-10T07:16:11;2;2;
73565;PMS5003;61846;52.970;-3.168;2023-05-10T07:18:36;1;1;
73565;PMS5003;61846;52.970;-3.168;2023-05-10T07:21:02;3;3;
73565;PMS5003;61846;52.970;-3.168;2023-05-10T07:23:28;5;2;
73565;PMS5003;61846;52.970;-3.168;2023-05-10T07:25:53;1;1;
73565;PMS5003;61846;52.970;-3.168;2023-05-10T07:28:18;2;1;
73565;PMS5003;61846;52.970;-3.168;2023-05-10T07:30:44;0;0;
73565;PMS5003;61846;52.970;-3.168;2023-05-10T07:33:10;0;0;
73565;PMS5003;61846;52.970;-3.168;2023-05-10T07:35:35;1;1;
73565;PMS5003;61846;52.970;-3.168;2023-05-10T07:38:00;1;1;
73565;PMS5003;61846;52.970;-3.168;2023-05-10T07:40:26;1;1;
73565;PMS5003;61846;52.970;-3.168;2023-05-10T07:42:51;2;2;
73565;PMS5003;61846;52.970;-3.168;2023-05-10T07:45:17;2;2;
73565;PMS5003;61846;52.970;-3.168;2023-05-10T07:47:42;1;1;
73565;PMS5003;61846;52.970;-3.168;2023-05-10T07:50:08;3;2;
73565;PMS5003;61846;52.970;-3.168;2023-05-10T07:52:33;3;2;
73565;PMS5003;61846;52.970;-3.168;2023-05-10T07:54:58;1;1;
73565;PMS5003;61846;52.970;-3.168;2023-05-10T07:57:24;1;1;
73565;PMS5003;61846;52.970;-3.168;2023-05-10T07:59:49;3;2;
73565;PMS5003;61846;52.970;-3.168;2023-05-10T08:02:15;4;3;
73565;PMS5003;61846;52.970;-3.168;2023-05-10T08:04:40;3;2;
73565;PMS5003;61846;52.970;-3.168;2023-05-10T08:07:06;2;1;
73565;PMS5003;61846;52.970;-3.168;2023-05-10T08:09:31;1;1;
73565;PMS5003;61846;52.970;-3.168;2023-05-10T08:11:57;6;3;
73565;PMS5003;61846;52.970;-3.168;2023-05-10T08:14:22;1;1;
73565;PMS5003;61846;52.970;-3.168;2023-05-10T08:16:48;2;1;
73565;PMS5003;61846;52.970;-3.168;2023-05-10T08:19:13;0;0;
73565;PMS5003;61846;52.970;-3.168;2023-05-10T08:21:38;1;1;
73565;PMS5003;61846;52.970;-3.168;2023-05-10T08:24:04;3;3;
73565;PMS5003;61846;52.970;-3.168;2023-05-10T08:26:30;4;2;
73565;PMS5003;61846;52.970;-3.168;2023-05-10T08:28:55;1;0;
73565;PMS5003;61846;52.970;-3.168;2023-05-10T08:31:20;1;0;
73565;PMS5003;61846;52.970;-3.168;2023-05-10T08:33:46;0;0;
73565;PMS5003;61846;52.970;-3.168;2023-05-10T08:36:11;2;2;
73565;PMS5003;61846;52.970;-3.168;2023-05-10T08:38:37;0;0;
73565;PMS5003;61846;52.970;-3.168;2023-05-10T08:41:02;0;0;
73565;PMS5003;61846;52.970;-3.168;2023-05-10T08:43:28;0;0;
73565;PMS5003;61846;52.970;-3.168;2023-05-10T08:45:53;2;0;
73565;PMS5003;61846;52.970;-3.168;2023-05-10T08:48:18;1;0;
73565;PMS5003;61846;52.970;-3.168;2023-05-10T08:50:44;1;1;
73565;PMS5003;61846;52.970;-3.168;2023-05-10T08:53:10;3;2;
73565;PMS5003;61846;52.970;-3.168;2023-05-10T08:55:35;0;0;
73565;PMS5003;61846;52.970;-3.168;2023-05-10T08:58:00;0;0;
73565;PMS5003;61846;52.970;-3.168;2023-05-10T09:00:26;1;1;
73565;PMS5003;61846;52.970;-3.168;2023-05-10T09:02:51;1;1;
73565;PMS5003;61846;52.970;-3.168;2023-05-10T09:05:17;1;1;
73565;PMS5003;61846;52.970;-3.168;2023-05-10T09:07:42;1;1;
73565;PMS5003;61846;52.970;-3.168;2023-05-10T09:10:08;1;1;
73565;PMS5003;61846;52.970;-3.168;2023-05-10T09:12:33;3;1;
73565;PMS5003;61846;52.970;-3.168;2023-05-10T09:14:59;1;0;
73565;PMS5003;61846;52.970;-3.168;2023-05-10T09:17:24;0;0;
73565;PMS5003;61846;52.970;-3.168;2023-05-10T09:19:50;0;0;
73565;PMS5003;61846;52.970;-3.168;2023-05-10T09:22:15;0;0;
73565;PMS5003;61846;52.970;-3.168;2023-05-10T09:24:41;2;0;
73565;PMS5003;61846;52.970;-3.168;2023-05-10T09:27:06;1;1;
73565;PMS5003;61846;52.970;-3.168;2023-05-10T09:31:57;1;1;
73565;PMS5003;61846;52.970;-3.168;2023-05-10T09:34:30;1;1;
73565;PMS5003;61846;52.970;-3.168;2023-05-10T09:36:51;1;1;
73565;PMS5003;61846;52.970;-3.168;2023-05-10T09:39:13;1;1;
73565;PMS5003;61846;52.970;-3.168;2023-05-10T09:41:38;1;1;
73565;PMS5003;61846;52.970;-3.168;2023-05-10T09:44:04;2;1;
73565;PMS5003;61846;52.970;-3.168;2023-05-10T09:46:29;4;1;
73565;PMS5003;61846;52.970;-3.168;2023-05-10T09:48:55;1;1;
73565;PMS5003;61846;52.970;-3.168;2023-05-10T09:51:20;1;1;
73565;PMS5003;61846;52.970;-3.168;2023-05-10T09:53:46;1;1;
73565;PMS5003;61846;52.970;-3.168;2023-05-10T09:56:11;3;2;
73565;PMS5003;61846;52.970;-3.168;2023-05-10T09:58:37;0;0;
73565;PMS5003;61846;52.970;-3.168;2023-05-10T10:01:02;5;0;
73565;PMS5003;61846;52.970;-3.168;2023-05-10T10:03:28;1;1;
73565;PMS5003;61846;52.970;-3.168;2023-05-10T10:05:53;2;1;
73565;PMS5003;61846;52.970;-3.168;2023-05-10T10:08:18;2;0;
73565;PMS5003;61846;52.970;-3.168;2023-05-10T10:10:44;0;0;
73565;PMS5003;61846;52.970;-3.168;2023-05-10T10:13:09;1;1;
73565;PMS5003;61846;52.970;-3.168;2023-05-10T10:15:35;1;1;
73565;PMS5003;61846;52.970;-3.168;2023-05-10T10:18:00;2;2;
73565;PMS5003;61846;52.970;-3.168;2023-05-10T10:20:26;0;0;
73565;PMS5003;61846;52.970;-3.168;2023-05-10T10:22:51;3;1;
73565;PMS5003;61846;52.970;-3.168;2023-05-10T10:25:17;1;1;
73565;PMS5003;61846;52.970;-3.168;2023-05-10T10:27:43;0;0;
73565;PMS5003;61846;52.970;-3.168;2023-05-10T10:30:10;0;0;
73565;PMS5003;61846;52.970;-3.168;2023-05-10T10:32:35;2;1;
73565;PMS5003;61846;52.970;-3.168;2023-05-10T10:34:58;1;1;
73565;PMS5003;61846;52.970;-3.168;2023-05-10T10:37:23;0;0;
73565;PMS5003;61846;52.970;-3.168;2023-05-10T10:39:49;0;0;
73565;PMS5003;61846;52.970;-3.168;2023-05-10T10:42:15;0;0;
73565;PMS5003;61846;52.970;-3.168;2023-05-10T10:44:40;3;0;
73565;PMS5003;61846;52.970;-3.168;2023-05-10T10:47:06;0;0;
73565;PMS5003;61846;52.970;-3.168;2023-05-10T10:49:31;0;0;
73565;PMS5003;61846;52.970;-3.168;2023-05-10T10:54:26;1;1;
73565;PMS5003;61846;52.970;-3.168;2023-05-10T10:56:51;0;0;
73565;PMS5003;61846;52.970;-3.168;2023-05-10T10:59:12;2;1;
73565;PMS5003;61846;52.970;-3.168;2023-05-10T11:01:37;0;0;
73565;PMS5003;61846;52.970;-3.168;2023-05-10T11:06:28;0;0;
73565;PMS5003;61846;52.970;-3.168;2023-05-10T11:08:53;2;0;
73565;PMS5003;61846;52.970;-3.168;2023-05-10T11:11:19;0;0;
73565;PMS5003;61846;52.970;-3.168;2023-05-10T11:13:44;2;0;
73565;PMS5003;61846;52.970;-3.168;2023-05-10T11:16:14;0;0;
73565;PMS5003;61846;52.970;-3.168;2023-05-10T11:18:36;0;0;
73565;PMS5003;61846;52.970;-3.168;2023-05-10T11:21:00;1;1;
73565;PMS5003;61846;52.970;-3.168;2023-05-10T11:23:29;0;0;
73565;PMS5003;61846;52.970;-3.168;2023-05-10T11:25:51;0;0;
73565;PMS5003;61846;52.970;-3.168;2023-05-10T11:28:16;1;1;
73565;PMS5003;61846;52.970;-3.168;2023-05-10T11:30:43;1;0;
73565;PMS5003;61846;52.970;-3.168;2023-05-10T11:33:07;1;0;
73565;PMS5003;61846;52.970;-3.168;2023-05-10T11:35:36;2;1;
73565;PMS5003;61846;52.970;-3.168;2023-05-10T11:37:57;1;1;
73565;PMS5003;61846;52.970;-3.168;2023-05-10T11:40:23;0;0;
73565;PMS5003;61846;52.970;-3.168;2023-05-10T11:42:48;0;0;
73565;PMS5003;61846;52.970;-3.168;2023-05-10T11:45:13;0;0;
73565;PMS5003;61846;52.970;-3.168;2023-05-10T11:47:39;2;0;
73565;PMS5003;61846;52.970;-3.168;2023-05-10T11:50:05;0;0;
73565;PMS5003;61846;52.970;-3.168;2023-05-10T11:52:29;1;0;
73565;PMS5003;61846;52.970;-3.168;2023-05-10T11:54:55;0;0;
73565;PMS5003;61846;52.970;-3.168;2023-05-10T11:57:20;0;0;
73565;PMS5003;61846;52.970;-3.168;2023-05-10T11:59:45;1;1;
73565;PMS5003;61846;52.970;-3.168;2023-05-10T12:02:11;0;0;
73565;PMS5003;61846;52.970;-3.168;2023-05-10T12:04:36;0;0;
73565;PMS5003;61846;52.970;-3.168;2023-05-10T12:07:01;2;1;
73565;PMS5003;61846;52.970;-3.168;2023-05-10T12:09:27;0;0;
73565;PMS5003;61846;52.970;-3.168;2023-05-10T12:11:55;0;0;
73565;PMS5003;61846;52.970;-3.168;2023-05-10T12:14:17;1;0;
73565;PMS5003;61846;52.970;-3.168;2023-05-10T12:16:43;0;0;
73565;PMS5003;61846;52.970;-3.168;2023-05-10T12:19:08;1;1;
73565;PMS5003;61846;52.970;-3.168;2023-05-10T12:21:34;0;0;
73565;PMS5003;61846;52.970;-3.168;2023-05-10T12:23:59;1;1;
73565;PMS5003;61846;52.970;-3.168;2023-05-10T12:26:24;0;0;
73565;PMS5003;61846;52.970;-3.168;2023-05-10T12:28:50;0;0;
73565;PMS5003;61846;52.970;-3.168;2023-05-10T12:31:15;0;0;
73565;PMS5003;61846;52.970;-3.168;2023-05-10T12:33:41;1;1;
73565;PMS5003;61846;52.970;-3.168;2023-05-10T12:36:06;1;1;
73565;PMS5003;61846;52.970;-3.168;2023-05-10T12:38:32;0;0;
73565;PMS5003;61846;52.970;-3.168;2023-05-10T12:40:57;1;0;
73565;PMS5003;61846;52.970;-3.168;2023-05-10T12:43:22;0;0;
73565;PMS5003;61846;52.970;-3.168;2023-05-10T12:45:47;0;0;
73565;PMS5003;61846;52.970;-3.168;2023-05-10T12:48:13;0;0;
73565;PMS5003;61846;52.970;-3.168;2023-05-10T12:50:38;1;1;
73565;PMS5003;61846;52.970;-3.168;2023-05-10T12:53:03;1;1;
73565;PMS5003;61846;52.970;-3.168;2023-05-10T12:55:29;2;1;
73565;PMS5003;61846;52.970;-3.168;2023-05-10T12:57:54;2;0;
73565;PMS5003;61846;52.970;-3.168;2023-05-10T13:00:19;0;0;
73565;PMS5003;61846;52.970;-3.168;2023-05-10T13:02:45;1;1;
73565;PMS5003;61846;52.970;-3.168;2023-05-10T13:05:10;0;0;
73565;PMS5003;61846;52.970;-3.168;2023-05-10T13:07:36;0;0;
73565;PMS5003;61846;52.970;-3.168;2023-05-10T13:10:01;0;0;
73565;PMS5003;61846;52.970;-3.168;2023-05-10T13:12:27;1;1;
73565;PMS5003;61846;52.970;-3.168;2023-05-10T13:14:52;1;1;
73565;PMS5003;61846;52.970;-3.168;2023-05-10T13:17:17;0;0;
73565;PMS5003;61846;52.970;-3.168;2023-05-10T13:19:42;0;0;
73565;PMS5003;61846;52.970;-3.168;2023-05-10T13:22:08;0;0;
73565;PMS5003;61846;52.970;-3.168;2023-05-10T13:24:33;0;0;
73565;PMS5003;61846;52.970;-3.168;2023-05-10T13:26:58;0;0;
73565;PMS5003;61846;52.970;-3.168;2023-05-10T13:29:24;0;0;
73565;PMS5003;61846;52.970;-3.168;2023-05-10T13:31:49;0;0;
73565;PMS5003;61846;52.970;-3.168;2023-05-10T13:34:15;1;1;
73565;PMS5003;61846;52.970;-3.168;2023-05-10T13:36:40;2;1;
73565;PMS5003;61846;52.970;-3.168;2023-05-10T13:39:05;0;0;
73565;PMS5003;61846;52.970;-3.168;2023-05-10T13:41:31;0;0;
73565;PMS5003;61846;52.970;-3.168;2023-05-10T13:43:56;0;0;
73565;PMS5003;61846;52.970;-3.168;2023-05-10T13:46:21;0;0;
73565;PMS5003;61846;52.970;-3.168;2023-05-10T13:48:47;0;0;
73565;PMS5003;61846;52.970;-3.168;2023-05-10T13:51:12;0;0;
73565;PMS5003;61846;52.970;-3.168;2023-05-10T13:53:38;0;0;
73565;PMS5003;61846;52.970;-3.168;2023-05-10T13:56:03;0;0;
73565;PMS5003;61846;52.970;-3.168;2023-05-10T13:58:28;0;0;
73565;PMS5003;61846;52.970;-3.168;2023-05-10T14:00:54;0;0;
73565;PMS5003;61846;52.970;-3.168;2023-05-10T14:03:19;0;0;
73565;PMS5003;61846;52.970;-3.168;2023-05-10T14:05:45;0;0;
73565;PMS5003;61846;52.970;-3.168;2023-05-10T14:08:10;3;1;
73565;PMS5003;61846;52.970;-3.168;2023-05-10T14:10:35;0;0;
73565;PMS5003;61846;52.970;-3.168;2023-05-10T14:13:01;0;0;
73565;PMS5003;61846;52.970;-3.168;2023-05-10T14:15:26;1;1;
73565;PMS5003;61846;52.970;-3.168;2023-05-10T14:17:52;0;0;
73565;PMS5003;61846;52.970;-3.168;2023-05-10T14:20:17;0;0;
73565;PMS5003;61846;52.970;-3.168;2023-05-10T14:22:42;0;0;
73565;PMS5003;61846;52.970;-3.168;2023-05-10T14:25:08;0;0;
73565;PMS5003;61846;52.970;-3.168;2023-05-10T14:27:33;8;8;
73565;PMS5003;61846;52.970;-3.168;2023-05-10T14:29:58;1;1;
73565;PMS5003;61846;52.970;-3.168;2023-05-10T14:32:24;0;0;
73565;PMS5003;61846;52.970;-3.168;2023-05-10T14:34:49;2;0;
73565;PMS5003;61846;52.970;-3.168;2023-05-10T14:37:16;0;0;
73565;PMS5003;61846;52.970;-3.168;2023-05-10T14:39:40;0;0;
73565;PMS5003;61846;52.970;-3.168;2023-05-10T14:42:05;0;0;
73565;PMS5003;61846;52.970;-3.168;2023-05-10T14:44:31;0;0;
73565;PMS5003;61846;52.970;-3.168;2023-05-10T14:46:56;0;0;
73565;PMS5003;61846;52.970;-3.168;2023-05-10T14:49:21;1;1;
73565;PMS5003;61846;52.970;-3.168;2023-05-10T14:51:47;1;0;
73565;PMS5003;61846;52.970;-3.168;2023-05-10T14:54:12;0;0;
73565;PMS5003;61846;52.970;-3.168;2023-05-10T14:56:38;1;1;
73565;PMS5003;61846;52.970;-3.168;2023-05-10T14:59:03;0;0;
73565;PMS5003;61846;52.970;-3.168;2023-05-10T15:01:28;0;0;
73565;PMS5003;61846;52.970;-3.168;2023-05-10T15:03:54;0;0;
73565;PMS5003;61846;52.970;-3.168;2023-05-10T15:06:23;3;1;
73565;PMS5003;61846;52.970;-3.168;2023-05-10T15:08:44;0;0;
73565;PMS5003;61846;52.970;-3.168;2023-05-10T15:11:10;0;0;
73565;PMS5003;61846;52.970;-3.168;2023-05-10T15:13:35;0;0;
73565;PMS5003;61846;52.970;-3.168;2023-05-10T15:16:01;2;1;
73565;PMS5003;61846;52.970;-3.168;2023-05-10T15:18:26;1;0;
73565;PMS5003;61846;52.970;-3.168;2023-05-10T15:20:51;0;0;
73565;PMS5003;61846;52.970;-3.168;2023-05-10T15:23:17;1;1;
73565;PMS5003;61846;52.970;-3.168;2023-05-10T15:25:42;2;0;
73565;PMS5003;61846;52.970;-3.168;2023-05-10T15:28:08;1;1;
73565;PMS5003;61846;52.970;-3.168;2023-05-10T15:30:33;0;0;
73565;PMS5003;61846;52.970;-3.168;2023-05-10T15:32:58;2;1;
73565;PMS5003;61846;52.970;-3.168;2023-05-10T15:35:25;0;0;
73565;PMS5003;61846;52.970;-3.168;2023-05-10T15:37:49;1;1;
73565;PMS5003;61846;52.970;-3.168;2023-05-10T15:40:15;1;1;
73565;PMS5003;61846;52.970;-3.168;2023-05-10T15:42:40;2;1;
73565;PMS5003;61846;52.970;-3.168;2023-05-10T15:45:06;1;1;
73565;PMS5003;61846;52.970;-3.168;2023-05-10T15:47:31;0;0;
73565;PMS5003;61846;52.970;-3.168;2023-05-10T15:49:56;2;0;
73565;PMS5003;61846;52.970;-3.168;2023-05-10T15:52:22;2;1;
73565;PMS5003;61846;52.970;-3.168;2023-05-10T15:54:47;0;0;
73565;PMS5003;61846;52.970;-3.168;2023-05-10T15:57:12;0;0;
73565;PMS5003;61846;52.970;-3.168;2023-05-10T15:59:38;0;0;
73565;PMS5003;61846;52.970;-3.168;2023-05-10T16:02:03;0;0;
73565;PMS5003;61846;52.970;-3.168;2023-05-10T16:04:29;0;0;
73565;PMS5003;61846;52.970;-3.168;2023-05-10T16:06:54;1;1;
73565;PMS5003;61846;52.970;-3.168;2023-05-10T16:09:19;1;0;
73565;PMS5003;61846;52.970;-3.168;2023-05-10T16:11:45;0;0;
73565;PMS5003;61846;52.970;-3.168;2023-05-10T16:14:10;3;1;
73565;PMS5003;61846;52.970;-3.168;2023-05-10T16:16:36;0;0;
73565;PMS5003;61846;52.970;-3.168;2023-05-10T16:19:01;0;0;
73565;PMS5003;61846;52.970;-3.168;2023-05-10T16:21:26;1;1;
73565;PMS5003;61846;52.970;-3.168;2023-05-10T16:23:52;1;1;
73565;PMS5003;61846;52.970;-3.168;2023-05-10T16:26:17;0;0;
73565;PMS5003;61846;52.970;-3.168;2023-05-10T16:28:43;1;1;
73565;PMS5003;61846;52.970;-3.168;2023-05-10T16:31:08;0;0;
73565;PMS5003;61846;52.970;-3.168;2023-05-10T16:33:33;0;0;